sensor_id;sensor_type;location;lat;lon;timestamp;temperature;humidity
21518;DHT22;61765;45.794;24.150;2023-05-19T00:06:34;21.30;87.90
21518;DHT22;61765;45.794;24.150;2023-05-19T00:14:43;21.20;87.70
21518;DHT22;61765;45.794;24.150;2023-05-19T00:22:49;21.20;87.70
21518;DHT22;61765;45.794;24.150;2023-05-19T00:31:04;21.20;87.40
21518;DHT22;61765;45.794;24.150;2023-05-19T00:39:47;21.20;87.80
21518;DHT22;61765;45.794;24.150;2023-05-19T01:15:18;21.10;88.00
21518;DHT22;61765;45.794;24.150;2023-05-19T01:33:28;21.10;88.00
21518;DHT22;61765;45.794;24.150;2023-05-19T01:41:57;21.10;88.20
21518;DHT22;61765;45.794;24.150;2023-05-19T01:50:07;21.00;88.20
21518;DHT22;61765;45.794;24.150;2023-05-19T01:58:18;21.00;88.20
21518;DHT22;61765;45.794;24.150;2023-05-19T02:06:34;20.90;88.30
21518;DHT22;61765;45.794;24.150;2023-05-19T02:14:46;20.90;88.00
21518;DHT22;61765;45.794;24.150;2023-05-19T02:22:56;20.90;88.60
21518;DHT22;61765;45.794;24.150;2023-05-19T02:31:02;21.00;88.40
21518;DHT22;61765;45.794;24.150;2023-05-19T02:39:13;21.00;88.30
21518;DHT22;61765;45.794;24.150;2023-05-19T02:47:18;20.40;90.20
21518;DHT22;61765;45.794;24.150;2023-05-19T02:55:26;20.60;89.90
21518;DHT22;61765;45.794;24.150;2023-05-19T03:03:32;21.00;88.80
21518;DHT22;61765;45.794;24.150;2023-05-19T03:11:40;20.90;89.00
21518;DHT22;61765;45.794;24.150;2023-05-19T03:19:46;20.80;88.60
21518;DHT22;61765;45.794;24.150;2023-05-19T03:27:55;21.00;88.10
21518;DHT22;61765;45.794;24.150;2023-05-19T03:36:01;21.20;87.60
21518;DHT22;61765;45.794;24.150;2023-05-19T03:44:13;21.40;87.20
21518;DHT22;61765;45.794;24.150;2023-05-19T03:52:19;21.30;86.90
21518;DHT22;61765;45.794;24.150;2023-05-19T04:00:36;21.40;86.50
21518;DHT22;61765;45.794;24.150;2023-05-19T04:08:41;21.50;86.50
21518;DHT22;61765;45.794;24.150;2023-05-19T04:16:49;21.70;86.70
21518;DHT22;61765;45.794;24.150;2023-05-19T04:24:55;21.40;88.00
21518;DHT22;61765;45.794;24.150;2023-05-19T04:33:05;21.40;88.40
21518;DHT22;61765;45.794;24.150;2023-05-19T04:41:11;21.70;88.00
21518;DHT22;61765;45.794;24.150;2023-05-19T04:49:20;22.00;87.60
21518;DHT22;61765;45.794;24.150;2023-05-19T04:57:29;22.40;86.20
21518;DHT22;61765;45.794;24.150;2023-05-19T05:05:38;22.60;86.00
21518;DHT22;61765;45.794;24.150;2023-05-19T05:13:44;22.90;84.40
21518;DHT22;61765;45.794;24.150;2023-05-19T05:21:53;23.10;83.70
21518;DHT22;61765;45.794;24.150;2023-05-19T05:29:59;23.60;82.40
21518;DHT22;61765;45.794;24.150;2023-05-19T05:38:08;24.00;80.80
21518;DHT22;61765;45.794;24.150;2023-05-19T05:46:16;24.50;79.20
21518;DHT22;61765;45.794;24.150;2023-05-19T05:54:25;25.00;77.30
21518;DHT22;61765;45.794;24.150;2023-05-19T06:02:30;25.40;76.10
21518;DHT22;61765;45.794;24.150;2023-05-19T06:10:39;25.70;74.10
21518;DHT22;61765;45.794;24.150;2023-05-19T06:18:49;26.20;73.60
21518;DHT22;61765;45.794;24.150;2023-05-19T06:27:00;26.70;72.60
21518;DHT22;61765;45.794;24.150;2023-05-19T06:35:06;26.80;70.90
21518;DHT22;61765;45.794;24.150;2023-05-19T06:43:15;26.60;71.50
21518;DHT22;61765;45.794;24.150;2023-05-19T06:51:31;26.40;71.50
21518;DHT22;61765;45.794;24.150;2023-05-19T06:59:39;26.70;71.60
21518;DHT22;61765;45.794;24.150;2023-05-19T07:07:56;27.10;70.60
21518;DHT22;61765;45.794;24.150;2023-05-19T07:16:37;26.90;71.40
21518;DHT22;61765;45.794;24.150;2023-05-19T07:24:43;27.30;70.70
21518;DHT22;61765;45.794;24.150;2023-05-19T07:32:53;27.60;70.40
21518;DHT22;61765;45.794;24.150;2023-05-19T07:40:59;27.50;70.00
21518;DHT22;61765;45.794;24.150;2023-05-19T07:49:07;27.80;70.70
21518;DHT22;61765;45.794;24.150;2023-05-19T07:57:12;27.80;69.40
21518;DHT22;61765;45.794;24.150;2023-05-19T08:05:21;28.20;68.60
21518;DHT22;61765;45.794;24.150;2023-05-19T08:13:27;27.70;70.00
21518;DHT22;61765;45.794;24.150;2023-05-19T08:21:35;28.20;68.70
21518;DHT22;61765;45.794;24.150;2023-05-19T08:29:40;28.70;67.20
21518;DHT22;61765;45.794;24.150;2023-05-19T08:37:49;28.20;67.40
21518;DHT22;61765;45.794;24.150;2023-05-19T08:45:55;28.80;67.10
21518;DHT22;61765;45.794;24.150;2023-05-19T08:54:13;28.90;65.80
21518;DHT22;61765;45.794;24.150;2023-05-19T09:02:22;28.70;66.50
21518;DHT22;61765;45.794;24.150;2023-05-19T09:10:31;28.60;66.70
21518;DHT22;61765;45.794;24.150;2023-05-19T09:18:38;28.40;67.80
21518;DHT22;61765;45.794;24.150;2023-05-19T09:26:46;29.00;67.80
21518;DHT22;61765;45.794;24.150;2023-05-19T09:34:52;29.80;66.20
21518;DHT22;61765;45.794;24.150;2023-05-19T09:43:04;29.50;63.90
21518;DHT22;61765;45.794;24.150;2023-05-19T09:51:12;29.10;66.70
21518;DHT22;61765;45.794;24.150;2023-05-19T09:59:23;29.10;64.90
21518;DHT22;61765;45.794;24.150;2023-05-19T10:07:33;28.70;62.60
21518;DHT22;61765;45.794;24.150;2023-05-19T10:15:42;29.20;64.90
21518;DHT22;61765;45.794;24.150;2023-05-19T10:23:55;29.90;63.50
21518;DHT22;61765;45.794;24.150;2023-05-19T10:32:07;30.60;60.50
21518;DHT22;61765;45.794;24.150;2023-05-19T10:40:19;30.70;59.20
21518;DHT22;61765;45.794;24.150;2023-05-19T10:48:27;31.20;58.70
21518;DHT22;61765;45.794;24.150;2023-05-19T10:56:38;31.70;54.10
21518;DHT22;61765;45.794;24.150;2023-05-19T11:04:48;31.10;57.90
21518;DHT22;61765;45.794;24.150;2023-05-19T11:12:56;31.70;56.90
21518;DHT22;61765;45.794;24.150;2023-05-19T11:21:05;31.60;55.90
21518;DHT22;61765;45.794;24.150;2023-05-19T11:29:10;31.90;53.90
21518;DHT22;61765;45.794;24.150;2023-05-19T11:37:18;32.30;54.40
21518;DHT22;61765;45.794;24.150;2023-05-19T11:45:24;39.50;48.60
21518;DHT22;61765;45.794;24.150;2023-05-19T11:53:33;43.30;40.40
21518;DHT22;61765;45.794;24.150;2023-05-19T12:01:39;43.00;41.00
21518;DHT22;61765;45.794;24.150;2023-05-19T12:09:48;49.80;34.90
21518;DHT22;61765;45.794;24.150;2023-05-19T12:17:57;53.70;32.70
21518;DHT22;61765;45.794;24.150;2023-05-19T12:26:05;50.10;31.90
21518;DHT22;61765;45.794;24.150;2023-05-19T12:34:11;38.00;40.80
21518;DHT22;61765;45.794;24.150;2023-05-19T12:42:19;28.50;53.60
21518;DHT22;61765;45.794;24.150;2023-05-19T12:50:29;26.10;57.70
21518;DHT22;61765;45.794;24.150;2023-05-19T12:58:38;26.10;58.30
21518;DHT22;61765;45.794;24.150;2023-05-19T13:06:44;26.20;56.70
21518;DHT22;61765;45.794;24.150;2023-05-19T13:14:53;25.90;57.50
21518;DHT22;61765;45.794;24.150;2023-05-19T13:22:59;26.40;57.10
21518;DHT22;61765;45.794;24.150;2023-05-19T13:31:07;34.50;50.40
21518;DHT22;61765;45.794;24.150;2023-05-19T13:39:12;42.60;40.40
21518;DHT22;61765;45.794;24.150;2023-05-19T13:47:21;38.60;40.70
21518;DHT22;61765;45.794;24.150;2023-05-19T13:55:27;32.90;47.10
21518;DHT22;61765;45.794;24.150;2023-05-19T14:03:35;30.90;51.90
21518;DHT22;61765;45.794;24.150;2023-05-19T14:11:41;27.70;58.60
21518;DHT22;61765;45.794;24.150;2023-05-19T14:19:49;28.00;59.60
21518;DHT22;61765;45.794;24.150;2023-05-19T14:27:55;28.10;58.40
21518;DHT22;61765;45.794;24.150;2023-05-19T14:36:03;27.40;58.70
21518;DHT22;61765;45.794;24.150;2023-05-19T14:44:09;27.70;59.50
21518;DHT22;61765;45.794;24.150;2023-05-19T14:52:17;27.80;59.60
21518;DHT22;61765;45.794;24.150;2023-05-19T15:00:22;28.00;60.80
21518;DHT22;61765;45.794;24.150;2023-05-19T15:08:31;28.40;59.10
21518;DHT22;61765;45.794;24.150;2023-05-19T15:16:38;28.40;59.10
21518;DHT22;61765;45.794;24.150;2023-05-19T15:24:47;27.80;59.40
21518;DHT22;61765;45.794;24.150;2023-05-19T15:32:52;27.60;59.80
21518;DHT22;61765;45.794;24.150;2023-05-19T15:41:03;27.20;62.10
21518;DHT22;61765;45.794;24.150;2023-05-19T15:49:09;26.90;62.80
21518;DHT22;61765;45.794;24.150;2023-05-19T15:57:18;26.90;62.90
21518;DHT22;61765;45.794;24.150;2023-05-19T16:05:23;26.90;63.80
21518;DHT22;61765;45.794;24.150;2023-05-19T16:13:31;27.20;63.40
21518;DHT22;61765;45.794;24.150;2023-05-19T16:21:37;26.90;64.60
21518;DHT22;61765;45.794;24.150;2023-05-19T16:29:45;26.90;63.80
21518;DHT22;61765;45.794;24.150;2023-05-19T16:37:50;26.70;62.60
21518;DHT22;61765;45.794;24.150;2023-05-19T16:45:59;26.60;62.60
21518;DHT22;61765;45.794;24.150;2023-05-19T16:54:05;25.90;65.40
21518;DHT22;61765;45.794;24.150;2023-05-19T17:02:13;26.30;64.10
21518;DHT22;61765;45.794;24.150;2023-05-19T17:10:19;26.20;62.30
21518;DHT22;61765;45.794;24.150;2023-05-19T17:18:27;25.90;62.60
21518;DHT22;61765;45.794;24.150;2023-05-19T17:26:33;25.80;63.20
21518;DHT22;61765;45.794;24.150;2023-05-19T17:34:41;25.60;64.10
21518;DHT22;61765;45.794;24.150;2023-05-19T17:42:46;25.50;64.60
21518;DHT22;61765;45.794;24.150;2023-05-19T17:50:54;25.30;64.80
21518;DHT22;61765;45.794;24.150;2023-05-19T17:59:00;24.80;66.30
21518;DHT22;61765;45.794;24.150;2023-05-19T18:07:09;25.00;68.10
21518;DHT22;61765;45.794;24.150;2023-05-19T18:15:15;24.60;69.00
21518;DHT22;61765;45.794;24.150;2023-05-19T18:23:29;24.30;70.80
21518;DHT22;61765;45.794;24.150;2023-05-19T18:31:34;24.20;71.20
21518;DHT22;61765;45.794;24.150;2023-05-19T18:39:42;24.10;72.10
21518;DHT22;61765;45.794;24.150;2023-05-19T18:47:48;24.00;73.10
21518;DHT22;61765;45.794;24.150;2023-05-19T18:55:56;24.00;73.30
21518;DHT22;61765;45.794;24.150;2023-05-19T19:04:01;23.90;73.60
21518;DHT22;61765;45.794;24.150;2023-05-19T19:12:10;23.80;74.50
21518;DHT22;61765;45.794;24.150;2023-05-19T19:20:16;23.70;74.60
21518;DHT22;61765;45.794;24.150;2023-05-19T19:28:24;23.30;75.10
21518;DHT22;61765;45.794;24.150;2023-05-19T19:36:30;23.20;75.60
21518;DHT22;61765;45.794;24.150;2023-05-19T19:44:38;23.30;76.10
21518;DHT22;61765;45.794;24.150;2023-05-19T19:52:44;22.90;79.30
21518;DHT22;61765;45.794;24.150;2023-05-19T20:00:54;22.80;82.30
21518;DHT22;61765;45.794;24.150;2023-05-19T20:09:00;22.00;84.10
21518;DHT22;61765;45.794;24.150;2023-05-19T20:17:10;22.20;83.60
21518;DHT22;61765;45.794;24.150;2023-05-19T20:25:16;22.30;84.10
21518;DHT22;61765;45.794;24.150;2023-05-19T20:33:24;22.50;83.50
21518;DHT22;61765;45.794;24.150;2023-05-19T20:41:29;22.50;82.80
21518;DHT22;61765;45.794;24.150;2023-05-19T20:49:37;22.40;83.00
21518;DHT22;61765;45.794;24.150;2023-05-19T20:57:43;22.30;82.60
21518;DHT22;61765;45.794;24.150;2023-05-19T21:05:51;22.20;82.90
21518;DHT22;61765;45.794;24.150;2023-05-19T21:13:56;22.00;82.40
21518;DHT22;61765;45.794;24.150;2023-05-19T21:22:05;22.00;82.00
21518;DHT22;61765;45.794;24.150;2023-05-19T21:30:12;21.70;81.90
21518;DHT22;61765;45.794;24.150;2023-05-19T21:38:20;21.70;82.50
21518;DHT22;61765;45.794;24.150;2023-05-19T21:46:25;21.50;82.50
21518;DHT22;61765;45.794;24.150;2023-05-19T21:54:34;21.40;83.30
21518;DHT22;61765;45.794;24.150;2023-05-19T22:02:39;21.30;83.30
21518;DHT22;61765;45.794;24.150;2023-05-19T22:10:50;21.10;84.50
21518;DHT22;61765;45.794;24.150;2023-05-19T22:18:55;21.00;85.70
21518;DHT22;61765;45.794;24.150;2023-05-19T22:27:05;20.90;85.40
21518;DHT22;61765;45.794;24.150;2023-05-19T22:35:13;20.70;87.00
21518;DHT22;61765;45.794;24.150;2023-05-19T22:43:21;20.70;86.60
21518;DHT22;61765;45.794;24.150;2023-05-19T22:51:27;20.70;86.00
21518;DHT22;61765;45.794;24.150;2023-05-19T22:59:35;20.50;86.40
21518;DHT22;61765;45.794;24.150;2023-05-19T23:07:41;20.40;87.30
21518;DHT22;61765;45.794;24.150;2023-05-19T23:15:50;20.40;87.40
21518;DHT22;61765;45.794;24.150;2023-05-19T23:23:56;20.40;87.50
21518;DHT22;61765;45.794;24.150;2023-05-19T23:32:04;20.00;88.40
21518;DHT22;61765;45.794;24.150;2023-05-19T23:40:11;19.80;89.30
21518;DHT22;61765;45.794;24.150;2023-05-19T23:48:19;19.90;89.50
21518;DHT22;61765;45.794;24.150;2023-05-19T23:56:25;19.50;90.20
